sensor_id;sensor_type;location;lat;lon;timestamp;P1;durP1;ratioP1;P2;durP2;ratioP2
12072;SDS011;6098;49.004;8.372;2022-11-20T00:12:39;16.86;;;10.26;;
12072;SDS011;6098;49.004;8.372;2022-11-20T00:27:31;16.03;;;10.36;;
12072;SDS011;6098;49.004;8.372;2022-11-20T00:42:21;16.22;;;10.42;;
12072;SDS011;6098;49.004;8.372;2022-11-20T00:57:12;16.18;;;9.73;;
12072;SDS011;6098;49.004;8.372;2022-11-20T01:12:03;15.34;;;10.42;;
12072;SDS011;6098;49.004;8.372;2022-11-20T01:26:53;19.61;;;9.91;;
12072;SDS011;6098;49.004;8.372;2022-11-20T01:41:44;15.19;;;9.47;;
12072;SDS011;6098;49.004;8.372;2022-11-20T01:56:57;12.04;;;8.81;;
12072;SDS011;6098;49.004;8.372;2022-11-20T02:11:48;12.79;;;8.97;;
12072;SDS011;6098;49.004;8.372;2022-11-20T02:26:41;11.87;;;8.99;;
12072;SDS011;6098;49.004;8.372;2022-11-20T02:41:32;11.89;;;7.89;;
12072;SDS011;6098;49.004;8.372;2022-11-20T02:56:23;11.68;;;7.62;;
12072;SDS011;6098;49.004;8.372;2022-11-20T03:11:30;12.33;;;7.70;;
12072;SDS011;6098;49.004;8.372;2022-11-20T03:26:16;7.50;;;5.63;;
12072;SDS011;6098;49.004;8.372;2022-11-20T03:41:07;6.64;;;5.28;;
12072;SDS011;6098;49.004;8.372;2022-11-20T03:55:57;7.70;;;5.34;;
12072;SDS011;6098;49.004;8.372;2022-11-20T04:10:47;5.36;;;4.56;;
12072;SDS011;6098;49.004;8.372;2022-11-20T04:25:38;6.67;;;4.89;;
12072;SDS011;6098;49.004;8.372;2022-11-20T04:40:29;5.93;;;4.52;;
12072;SDS011;6098;49.004;8.372;2022-11-20T04:55:20;7.92;;;4.88;;
12072;SDS011;6098;49.004;8.372;2022-11-20T05:10:11;6.56;;;4.79;;
12072;SDS011;6098;49.004;8.372;2022-11-20T05:25:02;6.97;;;5.09;;
12072;SDS011;6098;49.004;8.372;2022-11-20T05:39:53;5.87;;;4.02;;
12072;SDS011;6098;49.004;8.372;2022-11-20T05:54:44;5.77;;;4.30;;
12072;SDS011;6098;49.004;8.372;2022-11-20T06:09:35;6.68;;;3.70;;
12072;SDS011;6098;49.004;8.372;2022-11-20T06:24:26;5.83;;;3.20;;
12072;SDS011;6098;49.004;8.372;2022-11-20T06:39:16;4.02;;;3.38;;
12072;SDS011;6098;49.004;8.372;2022-11-20T06:54:07;3.96;;;3.28;;
12072;SDS011;6098;49.004;8.372;2022-11-20T07:08:57;4.64;;;2.97;;
12072;SDS011;6098;49.004;8.372;2022-11-20T07:23:48;4.57;;;3.34;;
12072;SDS011;6098;49.004;8.372;2022-11-20T07:38:39;6.34;;;3.67;;
12072;SDS011;6098;49.004;8.372;2022-11-20T07:53:30;4.57;;;3.46;;
12072;SDS011;6098;49.004;8.372;2022-11-20T08:08:20;6.24;;;3.98;;
12072;SDS011;6098;49.004;8.372;2022-11-20T08:23:12;7.10;;;4.38;;
12072;SDS011;6098;49.004;8.372;2022-11-20T08:38:04;6.82;;;4.07;;
12072;SDS011;6098;49.004;8.372;2022-11-20T08:53:05;4.47;;;3.39;;
12072;SDS011;6098;49.004;8.372;2022-11-20T09:08:01;5.33;;;3.79;;
12072;SDS011;6098;49.004;8.372;2022-11-20T09:22:52;5.27;;;3.71;;
12072;SDS011;6098;49.004;8.372;2022-11-20T09:37:43;5.56;;;3.93;;
12072;SDS011;6098;49.004;8.372;2022-11-20T10:23:06;5.22;;;4.58;;
12072;SDS011;6098;49.004;8.372;2022-11-20T10:38:00;5.69;;;3.72;;
12072;SDS011;6098;49.004;8.372;2022-11-20T10:52:57;4.79;;;3.66;;
12072;SDS011;6098;49.004;8.372;2022-11-20T11:07:54;4.91;;;3.48;;
12072;SDS011;6098;49.004;8.372;2022-11-20T11:22:51;6.24;;;2.96;;
12072;SDS011;6098;49.004;8.372;2022-11-20T11:37:42;5.69;;;2.81;;
12072;SDS011;6098;49.004;8.372;2022-11-20T11:52:42;5.08;;;2.23;;
12072;SDS011;6098;49.004;8.372;2022-11-20T12:07:42;4.83;;;2.47;;
12072;SDS011;6098;49.004;8.372;2022-11-20T13:08:36;2.29;;;1.17;;
12072;SDS011;6098;49.004;8.372;2022-11-20T13:23:27;2.76;;;1.12;;
12072;SDS011;6098;49.004;8.372;2022-11-20T13:38:16;1.33;;;0.99;;
12072;SDS011;6098;49.004;8.372;2022-11-20T13:53:15;2.49;;;1.10;;
12072;SDS011;6098;49.004;8.372;2022-11-20T14:08:27;2.30;;;1.12;;
12072;SDS011;6098;49.004;8.372;2022-11-20T14:23:25;2.36;;;1.10;;
12072;SDS011;6098;49.004;8.372;2022-11-20T14:38:18;2.94;;;1.00;;
12072;SDS011;6098;49.004;8.372;2022-11-20T14:53:09;3.23;;;1.56;;
12072;SDS011;6098;49.004;8.372;2022-11-20T15:08:08;3.26;;;1.16;;
12072;SDS011;6098;49.004;8.372;2022-11-20T15:23:08;2.72;;;1.54;;
12072;SDS011;6098;49.004;8.372;2022-11-20T15:37:53;3.00;;;1.52;;
12072;SDS011;6098;49.004;8.372;2022-11-20T15:52:44;2.30;;;1.74;;
12072;SDS011;6098;49.004;8.372;2022-11-20T16:07:35;2.43;;;1.79;;
12072;SDS011;6098;49.004;8.372;2022-11-20T16:22:25;5.82;;;1.78;;
12072;SDS011;6098;49.004;8.372;2022-11-20T16:37:18;2.77;;;1.66;;
12072;SDS011;6098;49.004;8.372;2022-11-20T16:52:09;4.20;;;1.84;;
12072;SDS011;6098;49.004;8.372;2022-11-20T17:07:00;3.92;;;2.08;;
12072;SDS011;6098;49.004;8.372;2022-11-20T17:22:04;2.26;;;1.50;;
12072;SDS011;6098;49.004;8.372;2022-11-20T17:36:54;4.68;;;2.00;;
12072;SDS011;6098;49.004;8.372;2022-11-20T17:51:45;3.80;;;1.70;;
12072;SDS011;6098;49.004;8.372;2022-11-20T18:06:35;7.80;;;3.33;;
12072;SDS011;6098;49.004;8.372;2022-11-20T18:21:26;3.56;;;1.44;;
12072;SDS011;6098;49.004;8.372;2022-11-20T18:36:19;3.30;;;1.71;;
12072;SDS011;6098;49.004;8.372;2022-11-20T18:51:09;1.78;;;1.59;;
12072;SDS011;6098;49.004;8.372;2022-11-20T19:05:59;1.92;;;1.57;;
12072;SDS011;6098;49.004;8.372;2022-11-20T19:20:49;2.38;;;1.70;;
12072;SDS011;6098;49.004;8.372;2022-11-20T19:35:40;3.39;;;2.00;;
12072;SDS011;6098;49.004;8.372;2022-11-20T19:50:30;4.74;;;2.30;;
12072;SDS011;6098;49.004;8.372;2022-11-20T20:05:21;2.42;;;1.91;;
12072;SDS011;6098;49.004;8.372;2022-11-20T20:20:11;2.34;;;1.88;;
12072;SDS011;6098;49.004;8.372;2022-11-20T20:35:02;2.03;;;1.43;;
12072;SDS011;6098;49.004;8.372;2022-11-20T20:49:51;3.94;;;1.79;;
12072;SDS011;6098;49.004;8.372;2022-11-20T21:04:50;2.46;;;1.53;;
12072;SDS011;6098;49.004;8.372;2022-11-20T21:19:40;1.71;;;1.58;;
12072;SDS011;6098;49.004;8.372;2022-11-20T21:34:31;2.48;;;1.50;;
12072;SDS011;6098;49.004;8.372;2022-11-20T21:49:22;1.62;;;1.40;;
12072;SDS011;6098;49.004;8.372;2022-11-20T22:04:13;2.54;;;1.41;;
12072;SDS011;6098;49.004;8.372;2022-11-20T22:19:05;1.46;;;1.17;;
12072;SDS011;6098;49.004;8.372;2022-11-20T22:33:55;1.50;;;1.01;;
12072;SDS011;6098;49.004;8.372;2022-11-20T22:49:00;2.36;;;1.10;;
12072;SDS011;6098;49.004;8.372;2022-11-20T23:18:41;2.24;;;1.31;;
12072;SDS011;6098;49.004;8.372;2022-11-20T23:33:35;2.38;;;1.20;;
12072;SDS011;6098;49.004;8.372;2022-11-20T23:48:29;1.49;;;1.12;;
